createdAt,value
2018-06-22T00:00:31.448Z,99.90
2018-06-22T00:05:26.050Z,99.90
2018-06-22T00:10:20.764Z,99.90
2018-06-22T00:15:15.576Z,99.90
2018-06-22T00:20:10.047Z,99.90
2018-06-22T00:25:04.968Z,99.90
2018-06-22T00:29:59.977Z,99.90
2018-06-22T00:34:54.580Z,99.90
2018-06-22T00:39:49.090Z,99.90
2018-06-22T00:44:43.737Z,99.90
2018-06-22T00:49:38.480Z,99.90
2018-06-22T00:59:27.165Z,99.90
2018-06-22T01:04:21.717Z,99.40
2018-06-22T01:09:16.310Z,99.10
2018-06-22T01:14:10.829Z,98.80
2018-06-22T01:19:05.759Z,98.80
2018-06-22T01:24:00.595Z,98.40
2018-06-22T01:29:02.227Z,98.10
2018-06-22T01:33:56.893Z,98.00
2018-06-22T01:38:51.743Z,98.30
2018-06-22T01:48:40.940Z,98.70
2018-06-22T01:53:35.658Z,98.90
2018-06-22T01:58:30.631Z,99.10
2018-06-22T02:03:26.072Z,98.90
2018-06-22T02:08:20.778Z,99.20
2018-06-22T02:13:15.532Z,99.30
2018-06-22T02:18:11.054Z,99.90
2018-06-22T02:23:06.270Z,99.90
2018-06-22T02:28:00.724Z,99.90
2018-06-22T02:32:55.339Z,99.90
2018-06-22T02:37:50.169Z,99.90
2018-06-22T02:42:44.736Z,99.90
2018-06-22T02:52:34.012Z,99.90
2018-06-22T02:57:29.867Z,99.90
2018-06-22T03:02:24.446Z,99.90
2018-06-22T03:07:19.215Z,99.90
2018-06-22T03:17:08.326Z,99.90
2018-06-22T03:26:58.402Z,99.90
2018-06-22T03:31:53.284Z,99.90
2018-06-22T03:36:47.955Z,99.90
2018-06-22T03:41:42.454Z,99.90
2018-06-22T03:46:37.037Z,99.90
2018-06-22T03:51:31.692Z,99.90
2018-06-22T03:56:26.180Z,99.90
2018-06-22T04:01:22.309Z,99.90
2018-06-22T04:06:17.076Z,99.90
2018-06-22T04:11:11.894Z,99.90
2018-06-22T04:16:06.460Z,99.90
2018-06-22T04:21:01.636Z,99.90
2018-06-22T04:25:56.342Z,99.90
2018-06-22T04:30:50.812Z,99.90
2018-06-22T04:35:45.343Z,99.90
2018-06-22T04:40:39.812Z,99.90
2018-06-22T04:45:34.394Z,99.90
2018-06-22T04:50:29.212Z,99.90
2018-06-22T04:55:23.667Z,99.90
2018-06-22T05:00:18.129Z,99.90
2018-06-22T05:05:12.601Z,99.70
2018-06-22T05:10:07.070Z,99.10
2018-06-22T05:15:01.554Z,98.90
2018-06-22T05:19:56.051Z,98.70
2018-06-22T05:24:50.553Z,98.60
2018-06-22T05:34:39.441Z,98.60
2018-06-22T05:39:33.964Z,98.20
2018-06-22T05:44:28.461Z,98.10
2018-06-22T05:49:22.949Z,98.30
2018-06-22T05:54:17.425Z,98.10
2018-06-22T06:04:06.272Z,98.30
2018-06-22T06:09:00.946Z,97.60
2018-06-22T06:18:51.752Z,96.40
2018-06-22T06:23:46.250Z,96.20
2018-06-22T06:28:40.954Z,96.10
2018-06-22T06:33:35.421Z,96.10
2018-06-22T06:43:24.130Z,95.90
2018-06-22T06:48:18.856Z,95.10
2018-06-22T06:53:14.035Z,94.00
2018-06-22T06:58:08.539Z,94.20
2018-06-22T07:03:03.329Z,93.60
2018-06-22T07:07:57.810Z,92.20
2018-06-22T07:12:52.304Z,90.70
2018-06-22T07:17:46.800Z,90.60
2018-06-22T07:22:41.992Z,90.90
2018-06-22T07:27:36.456Z,90.90
2018-06-22T07:32:30.946Z,91.10
2018-06-22T07:37:25.397Z,91.10
2018-06-22T07:42:20.362Z,90.20
2018-06-22T07:47:15.481Z,88.90
2018-06-22T07:52:10.117Z,87.40
2018-06-22T07:57:04.923Z,86.40
2018-06-22T08:01:59.602Z,85.60
2018-06-22T08:06:54.260Z,84.50
2018-06-22T08:11:48.733Z,84.80
2018-06-22T08:16:43.347Z,84.80
2018-06-22T08:21:37.832Z,84.80
2018-06-22T08:26:32.490Z,84.50
2018-06-22T08:31:27.355Z,82.10
2018-06-22T08:36:21.862Z,78.30
2018-06-22T08:41:16.397Z,75.50
2018-06-22T08:46:10.886Z,66.90
2018-06-22T08:51:05.364Z,58.50
2018-06-22T09:10:42.843Z,58.90
2018-06-22T09:15:37.303Z,60.10
2018-06-22T09:20:31.801Z,62.50
2018-06-22T09:25:26.437Z,64.20
2018-06-22T09:30:21.210Z,65.40
2018-06-22T09:45:05.229Z,66.20
2018-06-22T09:49:59.960Z,63.70
2018-06-22T09:54:54.487Z,61.60
2018-06-22T09:59:50.313Z,59.50
2018-06-22T10:04:44.885Z,63.00
2018-06-22T10:09:40.581Z,62.90
2018-06-22T10:14:35.902Z,63.40
2018-06-22T10:19:31.219Z,64.70
2018-06-22T10:24:26.226Z,64.90
2018-06-22T10:29:21.133Z,65.40
2018-06-22T10:34:16.306Z,66.80
2018-06-22T10:39:12.909Z,67.00
2018-06-22T10:44:08.531Z,67.40
2018-06-22T10:49:03.658Z,67.50
2018-06-22T10:53:58.645Z,67.80
2018-06-22T10:58:53.448Z,65.30
2018-06-22T11:03:48.070Z,63.20
2018-06-22T11:08:43.191Z,61.30
2018-06-22T11:18:32.638Z,58.60
2018-06-22T11:23:27.783Z,58.10
2018-06-22T11:28:22.579Z,56.10
2018-06-22T11:38:21.772Z,54.20
2018-06-22T11:43:22.775Z,52.80
2018-06-22T11:48:17.287Z,51.80
2018-06-22T11:53:12.459Z,51.80
2018-06-22T11:58:07.310Z,54.00
2018-06-22T12:07:56.419Z,61.00
2018-06-22T12:17:46.748Z,62.80
2018-06-22T12:22:42.084Z,60.90
2018-06-22T12:32:31.126Z,59.90
2018-06-22T12:37:25.952Z,62.60
2018-06-22T12:42:20.480Z,62.10
2018-06-22T12:47:15.205Z,60.20
2018-06-22T12:52:09.822Z,59.00
2018-06-22T12:57:04.461Z,57.60
2018-06-22T13:06:53.474Z,57.40
2018-06-22T13:11:49.167Z,57.40
2018-06-22T13:16:43.774Z,58.20
2018-06-22T13:21:54.537Z,65.10
2018-06-22T13:26:49.576Z,70.10
2018-06-22T13:31:44.861Z,73.10
2018-06-22T13:36:39.895Z,76.20
2018-06-22T13:41:37.007Z,75.30
2018-06-22T13:46:32.472Z,73.00
2018-06-22T13:51:30.274Z,72.30
2018-06-22T13:56:24.761Z,70.00
2018-06-22T14:01:19.559Z,69.10
2018-06-22T14:06:19.214Z,68.80
2018-06-22T14:11:13.664Z,68.30
2018-06-22T14:16:09.142Z,66.40
2018-06-22T14:21:03.935Z,64.90
2018-06-22T14:25:58.483Z,63.70
2018-06-22T14:30:53.059Z,63.80
2018-06-22T14:35:47.644Z,62.30
2018-06-22T14:45:36.332Z,68.10
2018-06-22T14:55:30.544Z,66.50
2018-06-22T15:00:30.140Z,67.20
2018-06-22T15:05:30.139Z,67.40
2018-06-22T15:10:25.305Z,69.20
2018-06-22T15:15:19.750Z,68.90
2018-06-22T15:20:14.395Z,69.10
2018-06-22T15:25:08.884Z,70.10
2018-06-22T15:30:04.031Z,70.50
2018-06-22T15:35:03.811Z,69.70
2018-06-22T15:40:03.584Z,70.10
2018-06-22T15:45:04.691Z,70.80
2018-06-22T15:50:04.729Z,69.30
2018-06-22T15:55:05.333Z,66.50
2018-06-22T15:59:59.992Z,63.90
2018-06-22T16:04:54.631Z,64.90
2018-06-22T16:09:54.499Z,66.00
2018-06-22T16:14:54.660Z,65.00
2018-06-22T16:19:54.511Z,62.80
2018-06-22T16:24:54.634Z,61.40
2018-06-22T16:29:49.414Z,61.80
2018-06-22T16:34:44.087Z,62.90
2018-06-22T16:39:39.147Z,63.60
2018-06-22T16:44:34.199Z,62.90
2018-06-22T16:49:29.377Z,62.40
2018-06-22T16:54:24.288Z,62.90
2018-06-22T16:59:18.981Z,63.80
2018-06-22T17:04:15.932Z,62.50
2018-06-22T17:14:15.895Z,64.50
2018-06-22T17:24:08.094Z,66.80
2018-06-22T17:29:02.566Z,67.00
2018-06-22T17:33:58.450Z,67.20
2018-06-22T17:38:53.034Z,66.20
2018-06-22T17:48:42.127Z,68.00
2018-06-22T17:53:38.139Z,70.50
2018-06-22T17:58:32.812Z,72.30
2018-06-22T18:03:35.693Z,73.30
2018-06-22T18:18:25.947Z,77.80
2018-06-22T18:23:20.462Z,79.40
2018-06-22T18:28:15.094Z,82.90
2018-06-22T18:33:09.876Z,83.90
2018-06-22T18:42:58.822Z,87.80
2018-06-22T18:47:53.458Z,88.50
2018-06-22T18:52:53.230Z,89.60
2018-06-22T18:57:53.642Z,89.40
2018-06-22T19:02:53.560Z,89.50
2018-06-22T19:07:48.198Z,90.10
2018-06-22T19:12:42.871Z,90.50
2018-06-22T19:17:37.418Z,90.90
2018-06-22T19:22:32.817Z,92.40
2018-06-22T19:27:29.164Z,92.20
2018-06-22T19:32:23.847Z,92.70
2018-06-22T19:37:18.644Z,93.30
2018-06-22T19:47:12.707Z,94.50
2018-06-22T19:52:12.479Z,95.00
2018-06-22T19:57:07.373Z,96.20
2018-06-22T20:02:01.885Z,96.70
2018-06-22T20:06:56.557Z,97.20
2018-06-22T20:11:51.090Z,97.30
2018-06-22T20:16:45.556Z,97.70
2018-06-22T20:21:40.336Z,98.10
2018-06-22T20:26:34.844Z,98.40
2018-06-22T20:31:35.282Z,98.90
2018-06-22T20:36:35.326Z,99.30
2018-06-22T20:41:35.520Z,99.10
2018-06-22T20:46:36.258Z,99.50
2018-06-22T20:51:38.759Z,99.70
2018-06-22T20:56:34.149Z,99.90
2018-06-22T21:01:29.548Z,99.90
2018-06-22T21:06:25.944Z,99.90
2018-06-22T21:11:24.117Z,99.90
2018-06-22T21:21:19.834Z,99.90
2018-06-22T21:26:14.987Z,99.90
2018-06-22T21:31:14.938Z,99.90
2018-06-22T21:36:14.910Z,99.90
2018-06-22T21:41:10.370Z,99.90
2018-06-22T21:46:06.391Z,99.90
2018-06-22T21:51:01.464Z,99.90
2018-06-22T22:00:53.252Z,99.90
2018-06-22T22:10:49.791Z,99.90
2018-06-22T22:15:45.134Z,99.90
2018-06-22T22:20:39.833Z,99.90
2018-06-22T22:25:38.512Z,99.90
2018-06-22T22:30:34.687Z,99.90
2018-06-22T22:35:30.904Z,99.90
2018-06-22T22:40:27.166Z,99.90
2018-06-22T22:45:22.028Z,99.90
2018-06-22T22:50:17.965Z,99.90
2018-06-22T22:55:13.358Z,99.90
2018-06-22T23:00:09.388Z,99.90
2018-06-22T23:05:04.912Z,99.90
2018-06-22T23:10:00.512Z,99.90
2018-06-22T23:14:55.789Z,99.90
2018-06-22T23:24:46.162Z,99.90
2018-06-22T23:29:41.017Z,99.90
2018-06-22T23:34:35.928Z,99.90
2018-06-22T23:39:31.284Z,99.90
2018-06-22T23:44:27.676Z,99.90
2018-06-22T23:49:22.522Z,99.90
2018-06-22T23:54:17.690Z,99.90
2018-06-22T23:59:14.319Z,99.90
